Netcong, NJ (07857)

12:27 PM EDT on August 30, 2015 (GMT -0400)
KNJNETCO2 | | Change Station
CLOSE
Current Station
Personal Weather Station
Location: Netcong, NJ
Elevation: 919 ft
Nearby Weather Stations

Elev 919 ft 40.90 °N, 74.70 °W | Updated 2 seconds ago

Clear
Clear
79.5 °F
Feels Like 81 °F
N
2.2
Wind Variable Wind from West
Gusts 5.8 mph

Today
High -- | Low -- °F
--% Chance of Precip.
Yesterday
High -- | Low -- °F
Precip. -- in
6:23 AM 7:34 PM
Full, 99% visible
Pressure 30.10 in
Visibility 10.0 miles
Clouds Mostly Cloudy 26000 ft
Heat Index 81 °F
Dew Point 65 °F
Humidity 60%
Rainfall 0.00 in
Snow Depth Not available.
UV 5 out of 12
Pollen 10.30 out of 12
Air Quality Not available.
Flu Activity Not available.
METAR KMMU 301545Z 18005KT 10SM BKN260 29/20 A3010
Pressure 30.10 in
Visibility 10.0 miles
Clouds Mostly Cloudy 26000 ft
Heat Index 81 °F
Dew Point 65 °F
Humidity 60%
Rainfall 0.00 in
Snow Depth Not available.
UV 5 out of 12
Pollen 10.30 out of 12
Air Quality Not available.
Flu Activity Not available.
METAR KMMU 301545Z 18005KT 10SM BKN260 29/20 A3010

10-Day Weather Forecast

×

Almanac

Astronomy

Aug. 30, 2015 Rise Set
Actual Time
Civil Twilight
Nautical Twilight
Astronomical Twilight
Moon
Length of Visible Light
Length of Day
Tomorrow will be .
, % of the Moon is Illuminated

Today's Extremes

State Highs State Lows

Community

WunderPhotos

Upload Photos

1,851,005 photos uploaded!

WunderBlogs® & News

Nearby

Air Quality

  Air Quality AQ Index Pollutant
Not available.

Snow Depth

Station Depth Elevation

Earthquake Activity

City Distance Mag. Time & Date
Minimum magnitude displayed is 2.5.

Coastal Water Temperatures

Place Temperature

Stations

Nearby Weather Stations

Station Location Temp. Windchill Dew Point Humidity Wind Precip. Elev Updated Type